createdAt,value
2023-02-23T00:01:28.668Z,41.17
2023-02-23T00:02:53.420Z,50.53
2023-02-23T00:04:16.153Z,49.53
2023-02-23T00:05:38.205Z,50.38
2023-02-23T00:08:26.561Z,42.75
2023-02-23T00:09:51.988Z,46.67
2023-02-23T00:11:14.541Z,47.00
2023-02-23T00:12:38.971Z,48.78
2023-02-23T00:14:03.209Z,45.67
2023-02-23T00:15:28.361Z,45.60
2023-02-23T00:16:54.786Z,47.00
2023-02-23T00:18:18.852Z,49.15
2023-02-23T00:19:44.081Z,52.08
2023-02-23T00:21:06.456Z,47.42
2023-02-23T00:22:29.149Z,40.33
2023-02-23T00:23:54.481Z,44.15
2023-02-23T00:25:18.826Z,43.42
2023-02-23T00:26:45.559Z,54.65
2023-02-23T00:28:07.716Z,46.13
2023-02-23T00:29:35.575Z,47.22
2023-02-23T00:31:01.984Z,44.88
2023-02-23T00:32:25.311Z,45.55
2023-02-23T00:33:51.816Z,44.70
2023-02-23T00:35:33.472Z,47.25
2023-02-23T00:36:58.682Z,46.15
2023-02-23T00:38:29.313Z,41.45
2023-02-23T00:39:56.790Z,44.85
2023-02-23T00:41:21.103Z,42.33
2023-02-23T00:42:47.028Z,48.55
2023-02-23T00:44:10.074Z,45.67
2023-02-23T00:45:34.089Z,49.40
2023-02-23T00:46:55.655Z,49.60
2023-02-23T00:48:17.905Z,51.58
2023-02-23T00:49:45.124Z,48.38
2023-02-23T00:51:06.595Z,47.78
2023-02-23T00:52:29.229Z,46.25
2023-02-23T00:53:54.931Z,50.58
2023-02-23T00:55:18.657Z,50.03
2023-02-23T00:56:40.696Z,45.05
2023-02-23T00:58:04.554Z,47.05
2023-02-23T00:59:29.870Z,44.75
2023-02-23T01:00:53.446Z,52.15
2023-02-23T01:02:17.277Z,51.88
2023-02-23T01:03:40.044Z,41.05
2023-02-23T01:05:04.552Z,50.03
2023-02-23T01:06:27.092Z,45.05
2023-02-23T01:07:49.743Z,45.45
2023-02-23T01:09:17.251Z,47.00
2023-02-23T01:10:53.393Z,41.92
2023-02-23T01:12:19.792Z,44.25
2023-02-23T01:13:45.107Z,43.85
2023-02-23T01:15:16.597Z,47.08
2023-02-23T01:16:40.207Z,43.57
2023-02-23T01:18:05.129Z,49.55
2023-02-23T01:19:29.677Z,43.97
2023-02-23T01:20:53.247Z,51.13
2023-02-23T01:22:18.382Z,47.22
2023-02-23T01:23:43.321Z,43.17
2023-02-23T01:27:53.907Z,42.88
2023-02-23T01:29:18.670Z,46.67
2023-02-23T01:32:27.584Z,45.05
2023-02-23T01:34:01.873Z,47.13
2023-02-23T01:35:28.825Z,49.08
2023-02-23T01:36:56.178Z,47.80
2023-02-23T01:38:25.088Z,47.63
2023-02-23T01:39:54.940Z,47.78
2023-02-23T01:41:20.515Z,52.67
2023-02-23T01:42:46.757Z,52.75
2023-02-23T01:44:31.454Z,48.88
2023-02-23T01:45:58.189Z,44.80
2023-02-23T01:47:20.628Z,49.78
2023-02-23T01:48:46.696Z,52.55
2023-02-23T01:50:11.870Z,43.42
2023-02-23T01:51:39.150Z,45.42
2023-02-23T01:53:08.675Z,48.83
2023-02-23T01:54:36.531Z,44.90
2023-02-23T01:56:02.711Z,44.50
2023-02-23T01:57:25.330Z,50.78
2023-02-23T01:58:55.648Z,45.10
2023-02-23T02:00:20.286Z,51.15
2023-02-23T02:01:46.090Z,45.60
2023-02-23T02:03:17.924Z,48.33
2023-02-23T02:04:47.287Z,54.22
2023-02-23T02:06:14.435Z,48.42
2023-02-23T02:07:39.971Z,49.05
2023-02-23T02:09:10.827Z,50.83
2023-02-23T02:10:50.825Z,48.15
2023-02-23T02:12:15.068Z,47.03
2023-02-23T02:13:38.527Z,44.15
2023-02-23T02:15:02.308Z,46.83
2023-02-23T02:16:46.950Z,49.55
2023-02-23T02:18:18.827Z,44.67
2023-02-23T02:20:26.656Z,43.78
2023-02-23T02:22:27.432Z,46.85
2023-02-23T02:24:12.284Z,49.22
2023-02-23T02:26:08.319Z,44.47
2023-02-23T02:27:48.120Z,49.38
2023-02-23T02:29:47.440Z,50.55
2023-02-23T02:31:39.403Z,46.75
2023-02-23T02:33:48.354Z,50.07
2023-02-23T02:36:00.908Z,52.60
2023-02-23T02:37:43.442Z,50.25
2023-02-23T02:39:17.624Z,48.30
2023-02-23T02:40:53.532Z,46.28
2023-02-23T02:42:27.144Z,48.83
2023-02-23T02:43:55.423Z,51.05
2023-02-23T02:45:31.370Z,48.22
2023-02-23T02:46:59.758Z,57.35
2023-02-23T02:48:33.714Z,48.35
2023-02-23T02:50:03.144Z,54.72
2023-02-23T02:51:36.889Z,53.85
2023-02-23T02:53:06.098Z,48.25
2023-02-23T02:54:32.954Z,44.38
2023-02-23T02:55:59.906Z,51.25
2023-02-23T02:57:26.691Z,44.03
2023-02-23T02:58:51.064Z,48.95
2023-02-23T03:00:37.211Z,48.47
2023-02-23T03:02:19.649Z,49.75
2023-02-23T03:04:03.967Z,53.63
2023-02-23T03:05:48.265Z,51.80
2023-02-23T03:07:34.874Z,49.10
2023-02-23T03:09:22.606Z,48.35
2023-02-23T03:11:22.382Z,53.58
2023-02-23T03:13:18.894Z,50.37
2023-02-23T03:15:09.176Z,53.70
2023-02-23T03:16:58.088Z,45.92
2023-02-23T03:18:51.128Z,52.80
2023-02-23T03:22:25.965Z,47.92
2023-02-23T03:24:12.678Z,57.00
2023-02-23T03:26:29.174Z,55.60
2023-02-23T03:28:19.310Z,51.05
2023-02-23T03:30:05.835Z,49.75
2023-02-23T03:31:56.158Z,49.83
2023-02-23T03:33:42.683Z,56.72
2023-02-23T03:35:28.238Z,51.72
2023-02-23T03:37:13.972Z,55.60
2023-02-23T03:38:58.790Z,57.78
2023-02-23T03:40:40.535Z,55.53
2023-02-23T03:42:26.725Z,49.85
2023-02-23T03:44:12.077Z,56.60
2023-02-23T03:45:59.555Z,59.50
2023-02-23T03:47:43.665Z,57.78
2023-02-23T03:49:28.750Z,57.55
2023-02-23T03:51:13.053Z,59.97
2023-02-23T03:53:00.360Z,62.33
2023-02-23T03:54:46.285Z,55.42
2023-02-23T03:56:29.813Z,48.67
2023-02-23T03:58:16.929Z,58.97
2023-02-23T04:00:06.271Z,55.60
2023-02-23T04:03:42.001Z,55.88
2023-02-23T04:05:28.197Z,59.05
2023-02-23T04:07:08.793Z,61.20
2023-02-23T04:08:56.188Z,62.30
2023-02-23T04:10:36.137Z,53.13
2023-02-23T04:12:22.520Z,61.75
2023-02-23T04:13:54.896Z,64.45
2023-02-23T04:15:23.199Z,70.78
2023-02-23T04:16:45.570Z,77.18
2023-02-23T04:18:09.245Z,60.25
2023-02-23T04:19:31.745Z,68.13
2023-02-23T04:20:54.260Z,72.20
2023-02-23T04:22:30.904Z,67.68
2023-02-23T04:24:41.846Z,65.90
2023-02-23T04:26:05.377Z,73.07
2023-02-23T04:27:36.957Z,71.43
2023-02-23T04:29:24.621Z,73.45
2023-02-23T04:31:34.445Z,72.93
2023-02-23T04:33:04.563Z,77.17
2023-02-23T04:40:27.321Z,73.15
2023-02-23T04:42:04.050Z,88.25
2023-02-23T04:43:26.802Z,67.20
2023-02-23T04:44:49.664Z,76.38
2023-02-23T04:46:53.267Z,76.38
2023-02-23T04:48:18.512Z,72.03
2023-02-23T04:49:44.196Z,81.35
2023-02-23T04:51:20.547Z,74.75
2023-02-23T04:52:42.683Z,84.30
2023-02-23T04:54:08.930Z,75.13
2023-02-23T04:55:36.706Z,84.95
2023-02-23T04:57:15.330Z,77.47
2023-02-23T04:59:13.451Z,75.53
2023-02-23T05:00:39.514Z,86.60
2023-02-23T05:03:41.488Z,87.55
2023-02-23T05:05:08.810Z,80.53
2023-02-23T05:06:34.236Z,76.28
2023-02-23T05:11:06.615Z,86.47
2023-02-23T05:12:39.226Z,80.60
2023-02-23T05:14:23.660Z,79.22
2023-02-23T05:15:51.871Z,87.55
2023-02-23T05:17:20.931Z,83.93
2023-02-23T05:19:10.927Z,85.28
2023-02-23T05:20:35.091Z,81.03
2023-02-23T05:22:05.909Z,78.97
2023-02-23T05:23:50.300Z,81.13
2023-02-23T05:25:32.082Z,81.72
2023-02-23T05:27:24.108Z,79.55
2023-02-23T05:28:48.053Z,83.15
2023-02-23T05:30:12.227Z,82.10
2023-02-23T05:32:45.341Z,80.43
2023-02-23T05:34:37.754Z,76.90
2023-02-23T05:35:59.950Z,74.68
2023-02-23T05:37:40.914Z,80.20
2023-02-23T05:39:04.194Z,81.57
2023-02-23T05:40:45.717Z,85.10
2023-02-23T05:42:26.359Z,81.90
2023-02-23T05:44:20.587Z,83.35
2023-02-23T05:45:52.592Z,90.43
2023-02-23T05:49:09.298Z,78.75
2023-02-23T05:50:54.965Z,80.65
2023-02-23T05:52:19.386Z,84.18
2023-02-23T05:53:59.940Z,88.03
2023-02-23T05:55:27.157Z,87.15
2023-02-23T05:56:51.660Z,80.45
2023-02-23T06:01:42.211Z,89.80
2023-02-23T06:12:42.849Z,86.13
2023-02-23T06:14:17.763Z,89.70
2023-02-23T06:15:42.123Z,85.38
2023-02-23T06:17:24.798Z,87.15
2023-02-23T06:18:47.897Z,90.20
2023-02-23T06:20:18.652Z,94.32
2023-02-23T06:21:45.757Z,85.10
2023-02-23T06:23:39.373Z,89.70
2023-02-23T06:25:13.019Z,91.97
2023-02-23T06:26:39.906Z,90.93
2023-02-23T06:30:20.809Z,81.25
2023-02-23T06:31:43.240Z,91.32
2023-02-23T06:33:09.073Z,87.43
2023-02-23T06:34:34.591Z,93.88
2023-02-23T06:35:57.341Z,102.05
2023-02-23T06:37:21.544Z,88.53
2023-02-23T06:38:45.302Z,99.50
2023-02-23T06:40:08.346Z,92.47
2023-02-23T06:41:39.660Z,88.78
2023-02-23T06:43:04.747Z,93.80
2023-02-23T06:44:48.410Z,94.85
2023-02-23T06:46:24.897Z,96.82
2023-02-23T06:47:54.366Z,97.60
2023-02-23T06:49:27.096Z,91.13
2023-02-23T06:50:55.720Z,87.85
2023-02-23T06:52:26.468Z,90.93
2023-02-23T06:54:05.653Z,87.57
2023-02-23T06:55:55.620Z,94.80
2023-02-23T06:57:23.244Z,85.93
2023-02-23T06:58:54.689Z,89.15
2023-02-23T07:00:53.606Z,90.60
2023-02-23T07:02:41.539Z,91.18
2023-02-23T07:04:27.195Z,90.07
2023-02-23T07:10:50.094Z,93.05
2023-02-23T07:12:18.897Z,92.85
2023-02-23T07:13:54.672Z,93.75
2023-02-23T07:21:35.739Z,85.30
2023-02-23T07:25:33.673Z,85.18
2023-02-23T07:27:06.061Z,91.80
2023-02-23T07:30:58.342Z,87.03
2023-02-23T07:32:37.968Z,90.32
2023-02-23T07:37:39.472Z,85.30
2023-02-23T07:39:26.130Z,92.80
2023-02-23T07:41:01.713Z,88.07
2023-02-23T07:42:27.576Z,84.03
2023-02-23T07:46:40.505Z,79.88
2023-02-23T07:51:30.101Z,78.03
2023-02-23T07:53:03.279Z,78.22
2023-02-23T07:54:43.429Z,86.13
2023-02-23T07:56:27.747Z,81.70
2023-02-23T07:57:54.188Z,83.38
2023-02-23T07:59:19.638Z,82.32
2023-02-23T08:00:45.729Z,86.28
2023-02-23T08:02:15.426Z,91.75
2023-02-23T08:03:49.265Z,80.55
2023-02-23T08:05:19.940Z,88.40
2023-02-23T08:07:07.257Z,80.57
2023-02-23T08:08:31.063Z,79.70
2023-02-23T08:09:59.940Z,81.80
2023-02-23T08:11:22.443Z,78.07
2023-02-23T08:13:01.894Z,84.55
2023-02-23T08:14:56.869Z,80.72
2023-02-23T08:16:23.315Z,76.90
2023-02-23T08:17:59.842Z,77.28
2023-02-23T08:19:24.847Z,76.32
2023-02-23T08:21:02.787Z,80.63
2023-02-23T08:22:29.377Z,78.80
2023-02-23T08:27:00.116Z,76.50
2023-02-23T08:28:35.709Z,83.65
2023-02-23T08:29:58.640Z,77.95
2023-02-23T08:31:24.918Z,83.25
2023-02-23T08:33:12.015Z,80.00
2023-02-23T08:34:56.455Z,71.45
2023-02-23T08:36:22.696Z,76.13
2023-02-23T08:37:57.001Z,71.88
2023-02-23T08:39:47.026Z,79.07
2023-02-23T08:42:05.412Z,88.65
2023-02-23T08:44:25.272Z,82.88
2023-02-23T08:50:05.820Z,91.20
2023-02-23T08:51:24.747Z,72.72
2023-02-23T08:53:26.897Z,82.28
2023-02-23T08:55:03.492Z,71.18
2023-02-23T08:56:35.314Z,71.03
2023-02-23T08:58:20.278Z,73.82
2023-02-23T08:59:57.269Z,72.32
2023-02-23T09:01:32.246Z,76.22
2023-02-23T09:03:11.732Z,78.05
2023-02-23T09:04:38.965Z,72.85
2023-02-23T09:06:53.907Z,71.28
2023-02-23T09:08:34.228Z,78.80
2023-02-23T09:10:05.129Z,67.13
2023-02-23T09:11:34.026Z,70.70
2023-02-23T09:13:10.867Z,77.07
2023-02-23T09:14:54.058Z,69.57
2023-02-23T09:16:19.444Z,68.55
2023-02-23T09:18:01.859Z,65.07
2023-02-23T09:19:34.013Z,72.75
2023-02-23T09:23:08.407Z,69.20
2023-02-23T09:24:31.424Z,65.68
2023-02-23T09:26:09.956Z,68.13
2023-02-23T09:27:40.991Z,68.55
2023-02-23T09:29:06.496Z,67.18
2023-02-23T09:30:42.532Z,65.63
2023-02-23T09:32:18.162Z,69.03
2023-02-23T09:34:17.700Z,65.68
2023-02-23T09:35:43.492Z,69.95
2023-02-23T09:37:10.081Z,65.80
2023-02-23T09:38:32.886Z,62.00
2023-02-23T09:39:58.149Z,71.32
2023-02-23T09:41:58.526Z,63.60
2023-02-23T09:43:31.018Z,60.88
2023-02-23T09:45:05.885Z,63.53
2023-02-23T09:46:37.306Z,63.88
2023-02-23T09:48:35.564Z,61.97
2023-02-23T09:50:06.863Z,61.15
2023-02-23T09:51:32.591Z,57.47
2023-02-23T09:53:07.883Z,64.65
2023-02-23T09:54:39.219Z,57.33
2023-02-23T09:56:22.101Z,60.35
2023-02-23T09:58:04.666Z,58.75
2023-02-23T10:01:12.981Z,57.65
2023-02-23T10:02:41.010Z,61.17
2023-02-23T10:04:26.128Z,62.47
2023-02-23T10:05:59.042Z,60.67
2023-02-23T10:08:52.775Z,60.88
2023-02-23T10:10:28.235Z,64.55
2023-02-23T10:12:12.194Z,59.58
2023-02-23T10:13:46.867Z,58.15
2023-02-23T10:15:25.131Z,56.75
2023-02-23T10:16:59.285Z,60.85
2023-02-23T10:18:48.612Z,59.38
2023-02-23T10:20:24.791Z,53.25
2023-02-23T10:21:57.515Z,57.97
2023-02-23T10:23:31.416Z,62.30
2023-02-23T10:25:06.657Z,53.03
2023-02-23T10:26:36.739Z,59.78
2023-02-23T10:28:06.851Z,57.20
2023-02-23T10:29:34.090Z,56.90
2023-02-23T10:30:59.472Z,62.88
2023-02-23T10:32:31.729Z,56.58
2023-02-23T10:34:01.974Z,57.30
2023-02-23T10:35:29.447Z,61.22
2023-02-23T10:37:19.808Z,58.67
2023-02-23T10:38:57.661Z,57.15
2023-02-23T10:40:24.168Z,55.55
2023-02-23T10:41:53.795Z,60.10
2023-02-23T10:43:18.231Z,56.40
2023-02-23T10:44:57.737Z,53.25
2023-02-23T10:46:42.358Z,63.47
2023-02-23T10:48:09.219Z,57.00
2023-02-23T10:49:40.698Z,57.50
2023-02-23T10:51:13.148Z,63.80
2023-02-23T10:54:42.357Z,56.63
2023-02-23T10:56:10.912Z,58.42
2023-02-23T10:57:40.552Z,63.53
2023-02-23T10:59:03.629Z,59.78
2023-02-23T11:00:40.237Z,55.30
2023-02-23T11:02:25.674Z,61.33
2023-02-23T11:04:05.438Z,58.53
2023-02-23T11:05:44.858Z,58.05
2023-02-23T11:07:16.511Z,56.85
2023-02-23T11:08:41.501Z,59.63
2023-02-23T11:10:33.061Z,56.10
2023-02-23T11:12:00.771Z,59.67
2023-02-23T11:13:23.997Z,58.90
2023-02-23T11:14:47.281Z,61.17
2023-02-23T11:16:15.831Z,53.35
2023-02-23T11:17:40.024Z,57.60
2023-02-23T11:19:07.580Z,61.50
2023-02-23T11:20:35.881Z,61.33
2023-02-23T11:22:06.060Z,58.60
2023-02-23T11:23:31.689Z,65.78
2023-02-23T11:24:59.782Z,60.50
2023-02-23T11:26:33.245Z,63.67
2023-02-23T11:27:57.217Z,59.78
2023-02-23T11:29:28.116Z,62.17
2023-02-23T11:31:02.186Z,64.53
2023-02-23T11:32:44.539Z,62.00
2023-02-23T11:34:11.772Z,62.58
2023-02-23T11:35:38.606Z,59.35
2023-02-23T11:37:06.493Z,62.92
2023-02-23T11:39:17.812Z,55.58
2023-02-23T11:41:12.902Z,64.35
2023-02-23T11:42:55.298Z,58.22
2023-02-23T11:44:23.759Z,63.03
2023-02-23T11:45:51.460Z,67.05
2023-02-23T11:47:20.872Z,66.72
2023-02-23T11:48:51.583Z,54.65
2023-02-23T11:50:23.954Z,61.63
2023-02-23T11:53:20.570Z,56.15
2023-02-23T11:55:24.446Z,57.72
2023-02-23T11:56:58.151Z,58.90
2023-02-23T11:58:25.140Z,59.05
2023-02-23T11:59:52.227Z,59.92
2023-02-23T12:01:17.555Z,64.28
2023-02-23T12:02:53.896Z,55.22
2023-02-23T12:04:30.629Z,58.47
2023-02-23T12:05:57.671Z,56.28
2023-02-23T12:07:46.736Z,60.22
2023-02-23T12:09:20.954Z,58.78
2023-02-23T12:10:46.061Z,60.90
2023-02-23T12:12:51.685Z,62.15
2023-02-23T12:14:27.185Z,61.22
2023-02-23T12:16:00.024Z,58.45
2023-02-23T12:18:05.593Z,57.42
2023-02-23T12:19:50.201Z,59.92
2023-02-23T12:23:58.011Z,55.03
2023-02-23T12:25:53.258Z,57.20
2023-02-23T12:27:53.065Z,59.00
2023-02-23T12:29:43.628Z,59.08
2023-02-23T12:31:35.942Z,57.00
2023-02-23T12:33:16.006Z,56.30
2023-02-23T12:34:44.403Z,58.45
2023-02-23T12:36:18.113Z,57.80
2023-02-23T12:37:50.831Z,55.50
2023-02-23T12:39:24.758Z,63.67
2023-02-23T12:40:51.099Z,61.95
2023-02-23T12:42:20.563Z,58.33
2023-02-23T12:43:51.531Z,60.80
2023-02-23T12:45:24.580Z,55.22
2023-02-23T12:46:55.001Z,57.38
2023-02-23T12:48:30.460Z,58.58
2023-02-23T12:49:57.452Z,65.35
2023-02-23T12:51:27.583Z,54.17
2023-02-23T12:52:54.802Z,56.47
2023-02-23T12:54:18.924Z,54.45
2023-02-23T12:56:07.978Z,55.25
2023-02-23T12:57:50.359Z,55.17
2023-02-23T12:59:47.669Z,55.63
2023-02-23T13:01:22.072Z,50.28
2023-02-23T13:02:52.050Z,59.47
2023-02-23T13:04:34.320Z,58.38
2023-02-23T13:06:05.592Z,56.67
2023-02-23T13:07:44.187Z,53.47
2023-02-23T13:09:26.507Z,55.97
2023-02-23T13:11:09.823Z,49.95
2023-02-23T13:12:51.593Z,53.50
2023-02-23T13:14:19.627Z,51.15
2023-02-23T13:15:54.541Z,52.67
2023-02-23T13:17:33.534Z,57.33
2023-02-23T13:19:12.711Z,55.60
2023-02-23T13:20:42.302Z,52.10
2023-02-23T13:22:47.573Z,57.67
2023-02-23T13:24:38.486Z,55.45
2023-02-23T13:26:17.682Z,55.33
2023-02-23T13:27:51.690Z,50.35
2023-02-23T13:29:36.321Z,54.05
2023-02-23T13:31:17.683Z,59.17
2023-02-23T13:32:46.234Z,55.78
2023-02-23T13:34:22.768Z,51.83
2023-02-23T13:35:48.291Z,56.30
2023-02-23T13:37:13.919Z,54.00
2023-02-23T13:38:44.980Z,51.47
2023-02-23T13:40:43.205Z,50.95
2023-02-23T13:42:40.402Z,48.78
2023-02-23T13:44:11.298Z,56.50
2023-02-23T13:46:14.929Z,53.38
2023-02-23T13:47:55.744Z,47.63
2023-02-23T13:49:34.976Z,53.67
2023-02-23T13:51:29.915Z,53.67
2023-02-23T13:53:01.463Z,54.10
2023-02-23T13:54:32.154Z,56.60
2023-02-23T13:56:12.844Z,57.38
2023-02-23T13:57:37.620Z,56.58
2023-02-23T13:59:02.569Z,48.30
2023-02-23T14:00:35.202Z,54.47
2023-02-23T14:02:14.203Z,52.35
2023-02-23T14:04:12.747Z,52.97
2023-02-23T14:06:12.868Z,58.83
2023-02-23T14:08:48.844Z,59.28
2023-02-23T14:10:21.905Z,59.40
2023-02-23T14:12:06.507Z,61.78
2023-02-23T14:14:03.441Z,48.30
2023-02-23T14:16:24.782Z,54.22
2023-02-23T14:17:58.311Z,60.03
2023-02-23T14:19:42.838Z,55.63
2023-02-23T14:21:25.000Z,52.70
2023-02-23T14:23:28.790Z,50.53
2023-02-23T14:26:08.220Z,50.28
2023-02-23T14:27:45.977Z,47.20
2023-02-23T14:29:25.565Z,46.08
2023-02-23T14:31:00.519Z,47.65
2023-02-23T14:33:16.430Z,48.00
2023-02-23T14:35:01.335Z,50.55
2023-02-23T14:36:46.948Z,43.42
2023-02-23T14:38:29.985Z,54.38
2023-02-23T14:40:24.780Z,56.55
2023-02-23T14:42:08.822Z,48.97
2023-02-23T14:43:52.259Z,50.83
2023-02-23T14:45:32.069Z,45.65
2023-02-23T14:47:26.656Z,47.22
2023-02-23T14:49:01.242Z,44.55
2023-02-23T14:52:29.878Z,47.33
2023-02-23T14:56:09.153Z,39.50
2023-02-23T14:57:34.233Z,41.65
2023-02-23T14:58:58.363Z,41.08
2023-02-23T15:00:26.040Z,43.35
2023-02-23T15:01:57.320Z,45.45
2023-02-23T15:05:38.050Z,41.67
2023-02-23T15:07:24.412Z,44.83
2023-02-23T15:08:57.050Z,46.38
2023-02-23T15:10:38.584Z,41.15
2023-02-23T15:12:27.273Z,44.65
2023-02-23T15:13:52.443Z,41.28
2023-02-23T15:15:23.672Z,39.20
2023-02-23T15:16:55.469Z,48.00
2023-02-23T15:18:23.674Z,46.88
2023-02-23T15:19:50.943Z,45.90
2023-02-23T15:21:23.888Z,53.50
2023-02-23T15:22:50.293Z,47.70
2023-02-23T15:24:40.466Z,44.10
2023-02-23T15:26:35.629Z,43.78
2023-02-23T15:28:32.444Z,47.50
2023-02-23T15:29:58.076Z,44.92
2023-02-23T15:31:21.982Z,43.72
2023-02-23T15:32:45.092Z,48.85
2023-02-23T15:34:12.360Z,47.15
2023-02-23T15:36:04.659Z,51.17
2023-02-23T15:37:39.947Z,47.05
2023-02-23T15:39:06.770Z,52.00
2023-02-23T15:40:40.184Z,49.97
2023-02-23T15:42:06.308Z,55.70
2023-02-23T15:43:35.803Z,51.13
2023-02-23T15:45:31.637Z,54.00
2023-02-23T15:46:57.124Z,55.15
2023-02-23T15:48:22.952Z,48.33
2023-02-23T15:49:47.362Z,52.58
2023-02-23T15:51:23.096Z,54.28
2023-02-23T15:53:00.083Z,55.92
2023-02-23T15:54:48.117Z,60.90
2023-02-23T15:56:24.639Z,51.78
2023-02-23T15:57:49.594Z,52.78
2023-02-23T16:02:06.042Z,55.28
2023-02-23T16:06:01.321Z,56.38
2023-02-23T16:07:26.242Z,54.57
2023-02-23T16:09:01.069Z,59.45
2023-02-23T16:10:30.523Z,56.85
2023-02-23T16:11:55.333Z,56.13
2023-02-23T16:13:31.927Z,55.85
2023-02-23T16:15:00.678Z,55.65
2023-02-23T16:16:32.784Z,53.47
2023-02-23T16:18:35.540Z,59.17
2023-02-23T16:20:09.334Z,65.17
2023-02-23T16:21:49.786Z,61.83
2023-02-23T16:23:45.305Z,56.13
2023-02-23T16:25:15.311Z,59.58
2023-02-23T16:27:09.438Z,69.95
2023-02-23T16:35:17.869Z,79.68
2023-02-23T16:44:56.666Z,81.07
2023-02-23T16:46:25.836Z,79.13
2023-02-23T16:48:09.790Z,69.65
2023-02-23T16:49:48.691Z,74.85
2023-02-23T16:51:26.127Z,73.78
2023-02-23T16:52:52.097Z,77.15
2023-02-23T16:54:19.854Z,74.07
2023-02-23T16:55:57.410Z,75.53
2023-02-23T16:57:32.243Z,73.50
2023-02-23T16:59:04.134Z,70.65
2023-02-23T17:03:24.841Z,76.10
2023-02-23T17:04:52.440Z,77.90
2023-02-23T17:08:58.003Z,75.20
2023-02-23T17:12:44.004Z,83.55
2023-02-23T17:14:08.978Z,81.22
2023-02-23T17:16:06.329Z,88.32
2023-02-23T17:17:36.397Z,87.80
2023-02-23T17:19:03.839Z,90.82
2023-02-23T17:20:27.410Z,82.40
2023-02-23T17:21:53.383Z,84.35
2023-02-23T17:23:22.694Z,81.13
2023-02-23T17:28:37.836Z,87.40
2023-02-23T17:30:05.320Z,79.40
2023-02-23T17:31:32.240Z,84.07
2023-02-23T17:32:58.280Z,90.30
2023-02-23T17:35:00.316Z,84.07
2023-02-23T17:36:19.727Z,88.47
2023-02-23T17:37:46.299Z,82.82
2023-02-23T17:39:40.719Z,89.70
2023-02-23T17:41:16.431Z,90.13
2023-02-23T17:42:42.292Z,92.38
2023-02-23T17:44:07.978Z,84.10
2023-02-23T17:45:39.826Z,83.25
2023-02-23T17:47:01.974Z,91.32
2023-02-23T17:48:25.166Z,84.53
2023-02-23T17:49:47.667Z,92.65
2023-02-23T17:51:12.232Z,89.88
2023-02-23T17:52:34.005Z,96.97
2023-02-23T17:53:59.123Z,90.03
2023-02-23T17:55:23.865Z,90.35
2023-02-23T17:56:46.274Z,92.18
2023-02-23T17:58:08.552Z,90.00
2023-02-23T17:59:32.209Z,91.20
2023-02-23T18:00:56.739Z,91.40
2023-02-23T18:02:27.178Z,94.55
2023-02-23T18:03:59.804Z,95.63
2023-02-23T18:05:23.824Z,86.10
2023-02-23T18:06:46.159Z,97.07
2023-02-23T18:08:16.215Z,91.93
2023-02-23T18:09:39.065Z,92.47
2023-02-23T18:11:03.944Z,94.13
2023-02-23T18:12:26.404Z,98.82
2023-02-23T18:16:33.519Z,96.15
2023-02-23T18:17:59.518Z,92.72
2023-02-23T18:19:33.706Z,94.85
2023-02-23T18:21:25.418Z,99.45
2023-02-23T18:26:27.838Z,96.25
2023-02-23T18:27:30.870Z,101.80
2023-02-23T18:29:24.702Z,94.95
2023-02-23T18:31:04.150Z,103.50
2023-02-23T18:32:40.340Z,96.30
